Time;durP1;ratioP1;P1;durP2;ratioP2;P2;SDS_P1;SDS_P2;PMS_P1;PMS_P2;Temp;Humidity;BMP_temperature;BMP_pressure;BME280_temperature;BME280_humidity;BME280_pressure;Samples;Min_cycle;Max_cycle;Signal;HPM_P1;HPM_P2
2023/05/22 00:00:51;;;;;;;26.80;23.13;;;;;;;17.24;82.47;101367.50;5105590;28;20039;-66
2023/05/22 00:03:17;;;;;;;25.10;22.40;;;;;;;17.16;82.50;101366.41;5072932;28;20035;-66
2023/05/22 00:05:42;;;;;;;29.80;23.75;;;;;;;17.21;82.79;101356.16;5105738;28;20032;-66
2023/05/22 00:08:10;;;;;;;25.80;22.13;;;;;;;17.37;81.99;101356.56;5072450;28;20027;-66
2023/05/22 00:10:38;;;;;;;30.38;21.73;;;;;;;17.27;82.31;101352.94;5072875;28;20467;-66
2023/05/22 00:13:04;;;;;;;27.27;21.17;;;;;;;17.25;82.09;101355.75;5104981;28;20027;-66
2023/05/22 00:15:30;;;;;;;30.10;23.73;;;;;;;17.15;82.92;101349.44;5072744;28;20115;-66
2023/05/22 00:17:58;;;;;;;28.92;22.63;;;;;;;17.24;82.27;101347.81;5105322;28;20016;-66
2023/05/22 00:20:25;;;;;;;28.70;22.13;;;;;;;17.35;82.14;101357.66;5105387;28;20044;-66
2023/05/22 00:22:53;;;;;;;28.48;22.25;;;;;;;17.34;81.69;101346.06;5104754;28;20117;-66
2023/05/22 00:25:19;;;;;;;27.08;21.70;;;;;;;17.49;81.20;101350.16;5072495;28;20020;-66
2023/05/22 00:27:44;;;;;;;32.42;22.80;;;;;;;17.38;81.22;101352.91;5104958;28;20028;-66
2023/05/22 00:30:10;;;;;;;28.83;23.73;;;;;;;17.20;81.66;101355.25;5105035;28;20032;-66
2023/05/22 00:32:36;;;;;;;25.13;22.63;;;;;;;17.17;82.14;101347.47;5105089;28;20025;-66
2023/05/22 00:35:04;;;;;;;25.60;22.90;;;;;;;17.15;82.09;101341.38;5072567;28;20042;-66
2023/05/22 00:37:29;;;;;;;30.38;23.98;;;;;;;16.90;83.09;101342.53;5104472;28;20058;-66
2023/05/22 00:39:54;;;;;;;26.70;23.23;;;;;;;16.94;83.21;101345.81;5072508;28;20525;-66
2023/05/22 00:42:21;;;;;;;26.33;22.85;;;;;;;16.90;83.30;101342.53;5104259;28;20123;-66
2023/05/22 00:44:47;;;;;;;33.45;24.85;;;;;;;16.83;83.62;101341.34;5087922;28;20024;-66
2023/05/22 00:47:13;;;;;;;27.00;22.25;;;;;;;16.85;83.63;101342.03;5071981;28;20024;-66
2023/05/22 00:49:41;;;;;;;30.10;23.33;;;;;;;16.94;83.30;101343.13;5105139;28;20016;-66
2023/05/22 00:52:07;;;;;;;25.42;22.17;;;;;;;16.89;83.27;101348.91;5070404;28;20502;-66
2023/05/22 00:54:33;;;;;;;27.80;22.88;;;;;;;16.71;84.14;101345.84;5104854;28;20037;-66
2023/05/22 00:57:00;;;;;;;27.98;22.92;;;;;;;16.65;83.96;101326.66;5071781;28;20123;-66
2023/05/22 00:59:26;;;;;;;27.45;23.05;;;;;;;16.71;84.16;101343.16;5104277;28;20028;-66
2023/05/22 01:01:52;;;;;;;25.50;22.80;;;;;;;16.86;83.65;101342.94;5072049;28;20024;-66
2023/05/22 01:04:18;;;;;;;27.85;23.17;;;;;;;16.79;83.42;101335.38;5072003;28;20017;-66
2023/05/22 01:06:46;;;;;;;25.92;23.20;;;;;;;16.76;83.67;101348.16;5087232;28;20456;-66
2023/05/22 01:09:11;;;;;;;29.13;22.77;;;;;;;16.87;83.29;101341.94;5072069;28;20028;-66
2023/05/22 01:11:50;;;;;;;28.23;22.50;;;;;;;16.87;83.37;101340.09;5071537;28;20035;-66
2023/05/22 01:14:35;;;;;;;27.48;23.10;;;;;;;16.93;82.94;101339.59;5071812;28;20025;-66
2023/05/22 01:17:21;;;;;;;25.40;21.85;;;;;;;16.67;83.70;101347.06;5071843;28;20025;-66
2023/05/22 01:20:13;;;;;;;29.75;23.10;;;;;;;16.66;84.12;101345.34;5104523;28;20032;-66
2023/05/22 01:22:48;;;;;;;27.80;22.38;;;;;;;16.65;84.17;101349.03;5071560;28;20020;-66
2023/05/22 01:25:32;;;;;;;26.25;23.45;;;;;;;16.69;84.16;101338.88;5071493;28;20107;-66
2023/05/22 01:28:10;;;;;;;27.33;21.67;;;;;;;16.71;83.84;101337.78;5071630;28;20029;-66
2023/05/22 01:30:58;;;;;;;29.30;23.97;;;;;;;16.57;84.56;101346.09;5071691;28;20029;-66
2023/05/22 01:33:25;;;;;;;26.27;23.33;;;;;;;16.49;84.81;101343.16;5104165;28;20025;-66
2023/05/22 01:35:53;;;;;;;31.02;23.80;;;;;;;16.45;85.01;101334.50;5070618;28;20028;-66
2023/05/22 01:38:18;;;;;;;28.60;24.33;;;;;;;16.39;85.59;101332.31;5070010;28;20036;-66
2023/05/22 01:40:45;;;;;;;26.35;23.13;;;;;;;16.31;85.51;101324.03;5071554;28;20027;-66
2023/05/22 01:43:14;;;;;;;27.80;22.20;;;;;;;16.25;85.46;101336.09;5071251;28;20044;-66
2023/05/22 01:45:39;;;;;;;30.83;24.38;;;;;;;16.18;86.21;101339.38;5071952;28;20550;-66
2023/05/22 01:48:05;;;;;;;29.70;23.45;;;;;;;15.98;86.61;101325.72;5071430;28;20059;-66
2023/05/22 01:50:31;;;;;;;29.08;24.27;;;;;;;16.19;86.29;101330.38;5071601;28;20112;-65
2023/05/22 01:53:12;;;;;;;31.20;24.00;;;;;;;16.21;86.30;101340.00;5103660;28;20025;-66
2023/05/22 01:56:13;;;;;;;27.33;23.05;;;;;;;16.16;86.18;101333.28;5103939;28;20028;-65
2023/05/22 01:58:51;;;;;;;30.67;24.65;;;;;;;16.06;86.78;101331.34;5029543;28;20029;-66
2023/05/22 02:01:18;;;;;;;28.60;24.27;;;;;;;15.97;86.89;101323.13;5096555;28;20479;-66
2023/05/22 02:03:46;;;;;;;30.23;23.70;;;;;;;16.03;86.64;101323.53;5071387;28;20024;-65
2023/05/22 02:06:13;;;;;;;27.30;24.25;;;;;;;16.02;86.63;101326.31;5071725;28;20036;-66
2023/05/22 02:08:41;;;;;;;29.92;24.48;;;;;;;15.90;86.82;101312.03;5103560;28;20029;-66
2023/05/22 02:11:08;;;;;;;29.38;23.90;;;;;;;16.01;86.43;101319.25;5104181;28;20468;-66
2023/05/22 02:13:34;;;;;;;29.65;23.63;;;;;;;15.93;86.77;101319.00;5107660;28;20025;-65
2023/05/22 02:16:02;;;;;;;28.42;23.98;;;;;;;16.06;86.41;101325.09;5075141;28;20036;-66
2023/05/22 02:18:29;;;;;;;28.55;24.30;;;;;;;15.84;86.89;101318.72;5074950;28;20020;-66
2023/05/22 02:20:56;;;;;;;29.38;24.85;;;;;;;15.90;87.07;101325.44;5075133;28;20107;-66
2023/05/22 02:23:22;;;;;;;30.67;25.30;;;;;;;15.75;86.61;101299.81;5074168;28;20021;-66
2023/05/22 02:25:47;;;;;;;28.52;24.02;;;;;;;16.02;86.37;101323.63;5074973;28;20490;-66
2023/05/22 02:28:12;;;;;;;27.63;24.52;;;;;;;15.97;86.61;101318.66;5074733;28;20403;-66
2023/05/22 02:30:38;;;;;;;31.23;24.80;;;;;;;15.93;86.60;101321.69;5075071;28;20020;-66
2023/05/22 02:33:04;;;;;;;30.95;24.25;;;;;;;15.76;87.28;101312.25;5074552;28;20387;-66
2023/05/22 02:35:30;;;;;;;31.75;24.73;;;;;;;15.80;86.94;101311.91;5107314;28;20021;-66
2023/05/22 02:37:58;;;;;;;33.13;24.52;;;;;;;15.69;87.56;101309.19;5073763;28;20020;-65
2023/05/22 02:40:23;;;;;;;28.30;24.15;;;;;;;15.77;87.26;101319.34;5107161;28;20497;-65
2023/05/22 02:42:49;;;;;;;31.65;25.20;;;;;;;15.74;87.67;101314.22;5074320;28;20049;-65
2023/05/22 02:45:18;;;;;;;28.48;25.25;;;;;;;15.69;87.92;101313.72;5074464;28;20066;-66
2023/05/22 02:47:43;;;;;;;27.40;24.10;;;;;;;15.72;87.78;101305.44;5074292;28;20028;-66
2023/05/22 02:50:09;;;;;;;28.67;24.55;;;;;;;15.70;87.96;101302.84;5074648;28;20495;-66
2023/05/22 02:52:35;;;;;;;31.55;25.65;;;;;;;15.50;88.55;101308.84;5073714;28;20029;-66
2023/05/22 02:55:03;;;;;;;29.13;25.98;;;;;;;15.44;89.13;101308.38;5074453;28;20021;-66
2023/05/22 02:57:28;;;;;;;31.40;24.58;;;;;;;15.47;89.52;101303.72;5074287;28;20029;-66
2023/05/22 02:59:54;;;;;;;32.65;24.85;;;;;;;15.50;88.93;101301.69;5074457;28;20430;-66
2023/05/22 03:02:19;;;;;;;31.27;24.52;;;;;;;15.32;89.66;101301.25;5073924;28;20036;-65
2023/05/22 03:04:45;;;;;;;29.75;25.67;;;;;;;15.45;89.49;101301.19;5074613;28;20467;-65
2023/05/22 03:07:11;;;;;;;33.20;26.00;;;;;;;15.38;89.80;101299.91;5106195;28;20082;-66
2023/05/22 03:09:36;;;;;;;33.72;26.05;;;;;;;15.57;88.99;101304.75;5074201;28;20033;-66
2023/05/22 03:12:03;;;;;;;36.22;26.27;;;;;;;15.36;89.20;101300.06;5073946;28;20028;-65
2023/05/22 03:14:29;;;;;;;28.85;24.17;;;;;;;15.35;89.38;101292.13;5106750;28;20170;-65
2023/05/22 03:16:55;;;;;;;28.80;24.40;;;;;;;15.51;88.39;101300.72;5073874;28;20484;-66
2023/05/22 03:19:22;;;;;;;30.67;24.85;;;;;;;15.36;89.27;101302.75;5073885;28;20021;-66
2023/05/22 03:21:50;;;;;;;35.67;25.30;;;;;;;15.37;89.24;101298.22;5073050;28;20024;-66
2023/05/22 03:24:18;;;;;;;29.15;25.90;;;;;;;15.29;89.73;101295.25;5106422;28;20032;-65
2023/05/22 03:26:43;;;;;;;34.95;26.00;;;;;;;15.01;90.24;101289.31;5073824;28;20028;-66
2023/05/22 03:29:12;;;;;;;35.38;25.35;;;;;;;15.07;90.34;101294.22;5106605;28;20044;-65
2023/05/22 03:31:40;;;;;;;31.00;25.10;;;;;;;15.11;89.73;101292.16;5073742;28;20113;-66
2023/05/22 03:34:06;;;;;;;30.98;26.48;;;;;;;14.86;91.27;101294.00;5073685;28;20021;-66
2023/05/22 03:36:34;;;;;;;33.13;26.08;;;;;;;14.89;91.05;101291.09;5072776;28;20043;-66
2023/05/22 03:39:01;;;;;;;30.27;24.60;;;;;;;15.06;90.48;101291.63;5106375;28;20471;-66
2023/05/22 03:41:28;;;;;;;31.77;24.55;;;;;;;15.01;90.20;101281.28;5073411;28;20023;-65
2023/05/22 03:43:56;;;;;;;36.15;27.05;;;;;;;14.89;90.94;101282.19;5105879;28;20171;-65
2023/05/22 03:46:21;;;;;;;30.50;25.02;;;;;;;14.94;90.65;101294.28;5073063;28;20020;-66
2023/05/22 03:48:47;;;;;;;30.90;25.02;;;;;;;15.01;90.30;101292.00;5073533;28;20127;-65
2023/05/22 03:51:12;;;;;;;35.58;25.77;;;;;;;15.06;90.20;101297.88;5105539;28;20416;-66
2023/05/22 03:53:38;;;;;;;35.75;27.38;;;;;;;14.86;91.10;101293.13;5105537;28;20076;-66
2023/05/22 03:56:03;;;;;;;34.83;26.58;;;;;;;14.94;90.38;101290.72;5073123;28;20028;-65
2023/05/22 03:58:31;;;;;;;36.33;26.95;;;;;;;15.01;89.95;101292.00;5072958;28;20387;-66
2023/05/22 04:01:00;;;;;;;38.00;26.13;;;;;;;14.98;90.36;101285.03;5105738;28;20021;-66
2023/05/22 04:03:28;;;;;;;35.00;26.45;;;;;;;14.93;90.47;101281.00;5072846;28;20029;-65
2023/05/22 04:05:55;;;;;;;38.78;27.17;;;;;;;14.89;90.14;101275.00;5072723;28;20150;-66
2023/05/22 04:08:23;;;;;;;35.70;27.63;;;;;;;14.82;91.03;101283.59;5072340;28;20043;-66
2023/05/22 04:10:48;;;;;;;35.13;26.05;;;;;;;14.92;90.60;101285.50;5072886;28;20025;-65
2023/05/22 04:13:15;;;;;;;31.50;26.98;;;;;;;14.87;90.39;101289.47;5073139;28;20085;-66
2023/05/22 04:15:42;;;;;;;37.67;26.48;;;;;;;14.97;89.96;101277.97;5072990;28;20036;-66
2023/05/22 04:18:07;;;;;;;37.85;27.30;;;;;;;14.65;91.27;101285.72;5105503;28;20033;-65
2023/05/22 04:20:33;;;;;;;34.03;27.88;;;;;;;14.66;91.44;101284.75;5072572;28;20016;-66
2023/05/22 04:23:01;;;;;;;35.60;27.27;;;;;;;14.58;92.21;101289.78;5072039;28;20032;-66
2023/05/22 04:25:26;;;;;;;39.20;28.77;;;;;;;14.52;92.58;101291.09;5105016;28;20472;-65
2023/05/22 04:27:52;;;;;;;35.90;27.05;;;;;;;14.73;92.10;101294.00;5072494;28;20034;-65
2023/05/22 04:30:17;;;;;;;35.95;27.58;;;;;;;14.81;91.78;101297.97;5072260;28;20021;-66
2023/05/22 04:32:43;;;;;;;40.30;28.85;;;;;;;14.80;91.82;101299.81;5072442;28;20024;-65
2023/05/22 04:35:11;;;;;;;38.20;27.90;;;;;;;14.69;91.93;101305.94;5071746;28;20039;-65
2023/05/22 04:37:36;;;;;;;36.78;27.90;;;;;;;14.81;91.75;101300.66;5071837;28;20016;-66
2023/05/22 04:40:06;;;;;;;36.88;28.75;;;;;;;14.97;91.26;101309.25;5088024;28;20100;-65
2023/05/22 04:42:33;;;;;;;36.05;28.75;;;;;;;14.99;90.83;101315.34;5072171;28;20102;-65
2023/05/22 04:44:59;;;;;;;33.63;29.27;;;;;;;14.90;90.91;101321.41;5104816;28;20054;-66
2023/05/22 04:47:27;;;;;;;34.05;29.50;;;;;;;14.95;90.74;101321.91;5104360;28;20034;-66
2023/05/22 04:49:53;;;;;;;38.42;29.45;;;;;;;14.99;90.83;101326.91;5071943;28;20021;-65
2023/05/22 04:52:22;;;;;;;38.60;30.23;;;;;;;14.98;90.92;101327.03;5071566;28;20126;-66
2023/05/22 04:54:51;;;;;;;42.47;31.30;;;;;;;14.88;91.11;101326.88;5104776;28;20024;-65
2023/05/22 04:57:17;;;;;;;40.85;30.70;;;;;;;15.00;90.95;101325.13;5070774;28;20058;-66
2023/05/22 04:59:44;;;;;;;36.75;29.88;;;;;;;15.06;90.73;101321.97;5104745;28;20016;-65
2023/05/22 05:02:10;;;;;;;39.33;30.15;;;;;;;15.10;90.29;101328.81;5104647;28;20434;-65
2023/05/22 05:04:36;;;;;;;40.47;30.40;;;;;;;15.06;90.65;101318.41;5104314;28;20016;-65
2023/05/22 05:07:02;;;;;;;34.72;30.00;;;;;;;15.06;90.56;101334.50;5071391;28;20032;-65
2023/05/22 05:09:28;;;;;;;37.17;30.92;;;;;;;14.98;90.83;101324.38;5071836;28;20024;-66
2023/05/22 05:11:54;;;;;;;40.03;29.55;;;;;;;15.05;90.75;101340.84;5104470;28;20025;-65
2023/05/22 05:14:20;;;;;;;39.30;28.35;;;;;;;14.95;90.92;101340.66;5104316;28;20442;-66
2023/05/22 05:16:47;;;;;;;37.00;28.33;;;;;;;14.97;91.62;101341.38;5071765;28;20047;-66
2023/05/22 05:19:16;;;;;;;42.50;30.33;;;;;;;14.91;92.06;101342.72;5071940;28;20040;-65
2023/05/22 05:21:43;;;;;;;40.35;30.50;;;;;;;14.99;91.32;101344.81;5071453;28;20032;-65
2023/05/22 05:24:09;;;;;;;39.10;31.05;;;;;;;14.93;91.56;101343.44;5104544;28;20059;-66
2023/05/22 05:26:34;;;;;;;40.53;32.28;;;;;;;15.05;91.25;101343.50;5071692;28;20108;-65
2023/05/22 05:28:59;;;;;;;39.65;31.00;;;;;;;14.99;91.37;101342.13;5104446;28;20054;-65
2023/05/22 05:31:25;;;;;;;42.17;30.98;;;;;;;15.19;90.87;101344.19;5071307;28;20060;-65
2023/05/22 05:33:51;;;;;;;43.45;32.83;;;;;;;15.14;90.68;101343.69;5071757;28;20025;-65
2023/05/22 05:36:16;;;;;;;48.28;33.28;;;;;;;15.01;90.74;101342.88;5071549;28;20077;-66
2023/05/22 05:38:42;;;;;;;44.40;33.03;;;;;;;14.84;91.34;101346.81;5103893;28;20414;-65
2023/05/22 05:41:10;;;;;;;44.60;32.38;;;;;;;14.82;92.20;101346.03;5104217;28;20075;-66
2023/05/22 05:43:37;;;;;;;50.28;33.38;;;;;;;15.02;91.76;101346.41;5071356;28;20552;-66
2023/05/22 05:46:05;;;;;;;45.35;34.00;;;;;;;15.05;91.58;101336.31;5105792;28;20116;-65
2023/05/22 05:48:30;;;;;;;45.90;33.08;;;;;;;15.19;91.57;101344.19;5075512;28;20021;-65
2023/05/22 05:50:56;;;;;;;43.17;32.47;;;;;;;15.08;91.21;101343.28;5075377;28;20044;-65
2023/05/22 05:53:21;;;;;;;45.78;34.10;;;;;;;15.26;90.50;101341.06;5074935;28;20021;-66
2023/05/22 05:55:49;;;;;;;40.45;33.05;;;;;;;15.25;90.84;101332.16;5075583;28;20158;-66
2023/05/22 05:58:14;;;;;;;50.10;34.97;;;;;;;15.25;90.75;101332.16;5075408;28;20032;-65
2023/05/22 06:00:42;;;;;;;42.63;32.30;;;;;;;15.31;90.51;101336.22;5075338;28;20383;-66
2023/05/22 06:03:09;;;;;;;50.38;36.20;;;;;;;15.34;90.18;101342.19;5107988;28;20024;-65
2023/05/22 06:05:34;;;;;;;46.50;35.22;;;;;;;15.45;90.38;101349.44;5073975;28;20024;-65
2023/05/22 06:07:59;;;;;;;46.58;33.63;;;;;;;15.55;89.84;101352.25;5074667;28;20414;-66
2023/05/22 06:10:25;;;;;;;50.22;35.58;;;;;;;15.60;89.40;101358.13;5075089;28;20060;-65
2023/05/22 06:12:50;;;;;;;48.63;35.08;;;;;;;15.53;89.55;101359.56;5075043;28;20025;-65
2023/05/22 06:15:16;;;;;;;51.10;34.35;;;;;;;15.70;88.90;101352.94;5074809;28;20032;-66
2023/05/22 06:17:42;;;;;;;48.90;35.22;;;;;;;15.45;89.25;101354.78;5075142;28;20111;-65
2023/05/22 06:20:10;;;;;;;49.42;37.80;;;;;;;15.31;90.14;101365.69;5075139;28;20028;-65
2023/05/22 06:22:38;;;;;;;52.63;37.33;;;;;;;15.40;90.58;101363.16;5074455;28;20483;-66
2023/05/22 06:25:04;;;;;;;54.08;37.45;;;;;;;15.42;90.49;101363.06;5074954;28;20471;-65
2023/05/22 06:27:30;;;;;;;59.83;37.38;;;;;;;15.42;90.84;101360.38;5074731;28;20051;-65
2023/05/22 06:29:56;;;;;;;50.67;38.05;;;;;;;15.64;89.63;101367.66;5074706;28;20103;-65
2023/05/22 06:32:21;;;;;;;59.00;39.03;;;;;;;15.69;89.60;101364.66;5074603;28;20036;-66
2023/05/22 06:34:48;;;;;;;56.38;39.97;;;;;;;15.56;89.93;101364.69;5107305;28;20074;-66
2023/05/22 06:37:16;;;;;;;61.95;40.05;;;;;;;15.62;90.12;101369.63;5072981;28;20392;-66
2023/05/22 06:39:44;;;;;;;61.78;41.92;;;;;;;15.54;90.22;101375.53;5074865;28;20048;-66
2023/05/22 06:42:10;;;;;;;60.33;45.42;;;;;;;15.75;90.30;101372.25;5074591;28;20125;-65
2023/05/22 06:44:36;;;;;;;64.75;45.28;;;;;;;15.79;89.46;101376.38;5074335;28;20488;-66
2023/05/22 06:47:01;;;;;;;63.90;46.88;;;;;;;15.77;90.20;101379.19;5107052;28;20405;-65
2023/05/22 06:49:27;;;;;;;91.50;50.95;;;;;;;15.66;90.05;101379.97;5074182;28;20494;-66
2023/05/22 06:51:52;;;;;;;128.77;54.63;;;;;;;15.64;90.31;101376.53;5074057;28;20028;-66
2023/05/22 06:54:20;;;;;;;93.53;53.33;;;;;;;15.50;91.01;101382.13;5074329;28;20107;-65
2023/05/22 06:56:45;;;;;;;85.25;51.28;;;;;;;15.43;91.36;101384.38;5073778;28;20031;-67
2023/05/22 06:59:11;;;;;;;200.48;65.90;;;;;;;15.55;91.10;101387.97;5106679;28;20472;-66
2023/05/22 07:01:36;;;;;;;94.60;53.28;;;;;;;15.55;91.16;101384.44;5106688;28;20535;-66
2023/05/22 07:04:04;;;;;;;84.25;54.95;;;;;;;15.59;91.57;101396.66;5089778;28;20085;-66
2023/05/22 07:06:32;;;;;;;80.93;55.42;;;;;;;15.58;91.88;101400.28;5073505;28;20103;-65
2023/05/22 07:08:58;;;;;;;78.03;54.90;;;;;;;15.60;91.79;101396.53;5106701;28;20085;-66
2023/05/22 07:11:25;;;;;;;84.22;56.85;;;;;;;15.48;91.46;101401.97;5073745;28;20471;-66
2023/05/22 07:13:54;;;;;;;91.03;58.40;;;;;;;15.45;92.58;101414.63;5106476;28;20039;-65
2023/05/22 07:16:21;;;;;;;82.32;55.60;;;;;;;15.52;93.29;101408.81;5073792;28;20036;-66
2023/05/22 07:18:47;;;;;;;88.97;59.97;;;;;;;15.55;92.60;101417.47;5106592;28;20025;-65
2023/05/22 07:21:12;;;;;;;90.18;58.05;;;;;;;15.66;92.63;101414.84;5073985;28;20023;-65
2023/05/22 07:23:38;;;;;;;83.88;57.45;;;;;;;15.67;92.04;101407.63;5106205;28;20349;-66
2023/05/22 07:26:03;;;;;;;90.07;58.58;;;;;;;15.72;92.69;101412.69;5073800;28;20032;-66
2023/05/22 07:28:31;;;;;;;89.97;60.15;;;;;;;15.78;92.01;101409.56;5105920;28;20025;-66
2023/05/22 07:30:57;;;;;;;94.68;61.10;;;;;;;15.70;92.43;101407.44;5106223;28;20028;-65
2023/05/22 07:33:22;;;;;;;94.30;59.60;;;;;;;15.80;92.58;101413.84;5073600;28;20485;-66
2023/05/22 07:35:47;;;;;;;97.00;61.65;;;;;;;15.91;93.09;101413.00;5072487;28;20028;-66
2023/05/22 07:38:13;;;;;;;94.95;61.30;;;;;;;16.03;91.65;101412.06;5072976;28;20028;-66
2023/05/22 07:40:38;;;;;;;90.30;60.42;;;;;;;16.12;91.38;101411.38;5106265;28;20467;-65
2023/05/22 07:43:04;;;;;;;94.72;61.50;;;;;;;16.25;91.71;101416.63;5105703;28;20147;-65
2023/05/22 07:45:29;;;;;;;92.38;60.60;;;;;;;16.29;90.63;101418.06;5105863;28;20230;-66
2023/05/22 07:47:57;;;;;;;95.63;60.83;;;;;;;16.37;90.95;101416.66;5105810;28;20032;-66
2023/05/22 07:50:25;;;;;;;94.18;62.05;;;;;;;16.34;91.23;101415.91;5073233;28;20032;-66
2023/05/22 07:52:51;;;;;;;97.00;62.80;;;;;;;16.44;90.19;101424.09;5071568;28;20423;-66
2023/05/22 07:55:19;;;;;;;91.07;61.92;;;;;;;16.47;89.50;101418.50;5073207;28;20048;-66
2023/05/22 07:57:46;;;;;;;91.93;63.22;;;;;;;16.52;89.91;101428.84;5072938;28;20032;-66
2023/05/22 08:00:13;;;;;;;104.95;65.60;;;;;;;16.55;90.14;101425.91;5105854;28;20044;-65
2023/05/22 08:02:41;;;;;;;94.35;62.45;;;;;;;16.72;90.24;101429.97;5073102;28;20115;-66
2023/05/22 08:05:08;;;;;;;95.35;63.15;;;;;;;16.76;88.99;101435.00;5073139;28;20081;-65
2023/05/22 08:07:33;;;;;;;96.90;64.00;;;;;;;16.75;89.70;101433.25;5104886;28;20035;-66
2023/05/22 08:10:02;;;;;;;97.78;65.25;;;;;;;16.81;89.58;101440.00;5071926;28;20103;-66
2023/05/22 08:12:32;;;;;;;97.97;63.08;;;;;;;16.85;90.34;101438.78;5105096;28;20028;-66
2023/05/22 08:14:57;;;;;;;96.80;64.43;;;;;;;16.95;90.00;101429.00;5073229;28;20020;-66
2023/05/22 08:17:23;;;;;;;97.30;62.92;;;;;;;17.09;89.16;101429.72;5072534;28;20079;-66
2023/05/22 08:19:48;;;;;;;96.85;64.90;;;;;;;17.21;88.39;101429.59;5072772;28;20103;-66
2023/05/22 08:22:14;;;;;;;102.22;66.60;;;;;;;17.30;89.55;101416.38;5072204;28;20024;-66
2023/05/22 08:24:39;;;;;;;100.30;65.32;;;;;;;17.35;87.93;101419.50;5072824;28;20027;-65
2023/05/22 08:27:09;;;;;;;104.00;68.75;;;;;;;17.25;87.74;101425.66;5072221;28;20021;-66
2023/05/22 08:29:35;;;;;;;95.03;67.53;;;;;;;17.35;87.69;101432.94;5105074;28;20089;-66
2023/05/22 08:32:00;;;;;;;101.38;67.18;;;;;;;17.38;87.34;101417.44;5072430;28;20024;-66
2023/05/22 08:34:27;;;;;;;94.53;67.18;;;;;;;17.42;86.56;101426.09;5105039;28;20391;-66
2023/05/22 08:36:55;;;;;;;98.40;67.97;;;;;;;17.41;88.12;101425.25;5104421;28;20031;-66
2023/05/22 08:39:23;;;;;;;96.82;66.57;;;;;;;17.40;86.86;101420.84;5072175;28;20025;-65
2023/05/22 08:41:48;;;;;;;96.28;66.28;;;;;;;17.51;87.90;101421.81;5072029;28;20020;-66
2023/05/22 08:44:16;;;;;;;96.85;67.07;;;;;;;17.65;87.58;101427.75;5071008;28;20109;-66
2023/05/22 08:46:42;;;;;;;104.13;66.45;;;;;;;17.72;86.08;101428.06;5072119;28;20024;-66
2023/05/22 08:49:09;;;;;;;104.68;70.85;;;;;;;17.71;85.19;101423.69;5072425;28;20028;-66
2023/05/22 08:51:38;;;;;;;104.25;69.30;;;;;;;17.68;86.06;101429.31;5071560;28;20029;-65
2023/05/22 08:54:06;;;;;;;100.90;68.10;;;;;;;17.74;85.04;101423.41;5072669;28;20103;-66
2023/05/22 08:56:34;;;;;;;105.10;71.28;;;;;;;17.78;85.88;101416.81;5104082;28;20085;-66
2023/05/22 08:59:00;;;;;;;101.90;69.28;;;;;;;17.81;85.11;101419.25;5104714;28;20531;-66
2023/05/22 09:01:28;;;;;;;97.35;68.60;;;;;;;17.87;85.86;101424.09;5071822;28;20028;-66
2023/05/22 09:04:00;;;;;;;102.35;69.10;;;;;;;17.97;84.56;101423.31;5072159;28;20026;-66
2023/05/22 09:06:28;;;;;;;88.95;66.55;;;;;;;18.06;84.86;101419.84;5104036;28;20159;-66
2023/05/22 09:08:58;;;;;;;93.68;65.60;;;;;;;18.23;83.86;101421.09;5104388;28;20020;-66
2023/05/22 09:11:25;;;;;;;86.88;64.10;;;;;;;18.50;83.32;101421.41;5104165;28;20112;-66
2023/05/22 09:13:50;;;;;;;89.70;62.47;;;;;;;18.41;81.03;101427.56;5071984;28;20032;-66
2023/05/22 09:16:17;;;;;;;84.70;61.53;;;;;;;18.38;81.15;101434.09;5104373;28;20442;-66
2023/05/22 09:18:43;;;;;;;79.10;60.45;;;;;;;18.26;81.30;101432.44;5070458;28;20476;-66
2023/05/22 09:21:10;;;;;;;82.90;60.63;;;;;;;18.21;82.34;101428.47;5071692;28;20017;-66
2023/05/22 09:23:36;;;;;;;80.63;60.85;;;;;;;18.45;82.23;101430.88;5071108;28;20377;-66
2023/05/22 09:26:04;;;;;;;79.50;57.90;;;;;;;18.53;81.19;101414.88;5071890;28;20514;-66
2023/05/22 09:28:34;;;;;;;79.63;61.97;;;;;;;18.71;81.53;101428.59;5071647;28;20040;-66
2023/05/22 09:31:01;;;;;;;80.07;57.47;;;;;;;18.81;80.71;101424.97;5071742;28;20021;-66
2023/05/22 09:33:32;;;;;;;82.38;59.42;;;;;;;18.84;80.92;101415.75;5070410;28;20475;-66
2023/05/22 09:35:58;;;;;;;76.80;57.42;;;;;;;18.91;79.66;101424.13;5104264;28;20111;-66
2023/05/22 09:38:30;;;;;;;72.18;56.45;;;;;;;19.03;79.16;101423.91;5103473;28;20140;-66
2023/05/22 09:40:55;;;;;;;68.90;54.22;;;;;;;19.20;78.30;101427.75;5104326;28;20055;-66
2023/05/22 09:43:24;;;;;;;70.00;54.60;;;;;;;19.21;77.83;101415.16;5071294;28;20072;-66
2023/05/22 09:45:55;;;;;;;69.67;54.97;;;;;;;19.18;78.13;101416.28;5070481;28;20024;-66
2023/05/22 09:48:21;;;;;;;69.85;54.38;;;;;;;19.26;79.53;101416.41;5071978;28;20032;-66
2023/05/22 09:50:49;;;;;;;61.50;50.78;;;;;;;19.36;78.31;101412.91;5103984;28;20086;-67
2023/05/22 09:53:17;;;;;;;64.10;49.10;;;;;;;19.58;78.34;101414.47;5070910;28;20032;-66
2023/05/22 09:55:46;;;;;;;62.22;49.90;;;;;;;19.62;76.54;101416.75;5071459;28;20034;-66
2023/05/22 09:58:19;;;;;;;57.47;47.20;;;;;;;19.72;77.63;101420.34;5071600;28;20024;-66
2023/05/22 10:00:47;;;;;;;57.15;46.72;;;;;;;19.74;76.28;101414.81;5071408;28;20472;-66
2023/05/22 10:03:16;;;;;;;58.95;46.10;;;;;;;19.86;76.84;101410.97;5103788;28;20028;-66
2023/05/22 10:05:46;;;;;;;58.28;46.10;;;;;;;20.19;75.23;101417.72;5071624;28;20388;-66
2023/05/22 10:08:20;;;;;;;61.47;44.00;;;;;;;20.49;76.42;101414.94;5103376;28;20017;-66
2023/05/22 10:10:51;;;;;;;60.58;45.85;;;;;;;20.63;72.75;101417.19;5071346;28;20472;-66
2023/05/22 10:13:17;;;;;;;55.75;43.55;;;;;;;20.97;73.08;101424.72;5103824;28;20025;-66
2023/05/22 10:15:43;;;;;;;56.72;45.05;;;;;;;20.87;70.97;101413.97;5071273;28;20086;-66
2023/05/22 10:18:08;;;;;;;52.65;43.38;;;;;;;20.82;72.19;101402.72;5103832;28;20016;-66
2023/05/22 10:20:34;;;;;;;51.22;42.88;;;;;;;21.08;70.62;101408.28;5071253;28;20059;-66
2023/05/22 10:23:02;;;;;;;57.50;42.45;;;;;;;21.19;71.23;101409.94;5070624;28;20104;-66
2023/05/22 10:25:29;;;;;;;58.25;42.03;;;;;;;21.40;72.21;101415.94;5071226;28;20066;-66
2023/05/22 10:27:55;;;;;;;53.08;43.13;;;;;;;21.41;70.05;101409.50;5071201;28;20033;-66
2023/05/22 10:30:41;;;;;;;53.13;42.05;;;;;;;21.67;70.16;101409.59;5071021;28;20029;-66
2023/05/22 10:33:27;;;;;;;47.85;40.97;;;;;;;21.51;69.84;101412.16;5072981;28;20036;-66
2023/05/22 10:36:05;;;;;;;49.53;41.22;;;;;;;21.43;68.59;101412.94;5074631;28;20467;-66
2023/05/22 10:38:55;;;;;;;51.65;41.95;;;;;;;21.50;70.73;101396.91;5074048;28;20028;-66
2023/05/22 10:41:25;;;;;;;51.55;39.13;;;;;;;21.84;70.31;101396.22;5074609;28;20013;-66
2023/05/22 10:43:50;;;;;;;50.95;40.30;;;;;;;21.72;67.67;101399.16;5107171;28;20499;-66
2023/05/22 10:46:19;;;;;;;48.45;39.90;;;;;;;21.81;69.02;101394.66;5107035;28;20033;-66
2023/05/22 10:48:47;;;;;;;46.38;38.70;;;;;;;22.07;69.11;101393.84;5106943;28;20048;-66
2023/05/22 10:51:15;;;;;;;48.13;37.63;;;;;;;22.39;68.25;101402.22;5106628;28;20547;-66
2023/05/22 10:53:42;;;;;;;46.35;36.40;;;;;;;22.57;66.42;101394.00;5074152;28;20111;-66
2023/05/22 10:56:10;;;;;;;43.13;37.17;;;;;;;22.77;64.75;101394.63;5074559;28;20032;-66
2023/05/22 10:58:36;;;;;;;45.80;37.22;;;;;;;22.52;65.07;101403.63;5074157;28;20024;-66
2023/05/22 11:01:17;;;;;;;50.42;39.20;;;;;;;22.53;66.06;101392.66;5072979;28;20557;-66
2023/05/22 11:03:59;;;;;;;43.95;35.97;;;;;;;22.96;67.09;101393.53;5074181;28;20432;-66
2023/05/22 11:06:47;;;;;;;42.65;36.25;;;;;;;22.98;65.23;101385.22;5106109;28;20107;-66
2023/05/22 11:09:19;;;;;;;39.45;34.72;;;;;;;23.24;64.13;101385.97;5106819;28;20024;-66
2023/05/22 11:12:05;;;;;;;42.92;34.22;;;;;;;23.14;63.04;101385.25;5106409;28;20067;-66